馬祖南竿航空站 - ATIS

METAR RCFG 301100Z 07007KT 9999 FEW016 10/03 Q1023 NOSIG RMK 04008KT/R21 MAX WND 10KT/R03 04011KT/NJL A3023(G)=

站台狀態:Online
最後更新:2023-01-31 00:00:02